createdAt,value
2022-08-03T00:00:32.524Z,100.00
2022-08-03T00:02:59.872Z,100.00
2022-08-03T00:05:27.224Z,100.00
2022-08-03T00:07:55.152Z,100.00
2022-08-03T00:10:23.479Z,100.00
2022-08-03T00:12:51.081Z,100.00
2022-08-03T00:15:18.628Z,100.00
2022-08-03T00:17:52.618Z,100.00
2022-08-03T00:20:22.569Z,100.00
2022-08-03T00:22:51.478Z,100.00
2022-08-03T00:25:19.416Z,100.00
2022-08-03T00:27:48.264Z,100.00
2022-08-03T00:30:17.003Z,100.00
2022-08-03T00:32:45.583Z,100.00
2022-08-03T00:35:25.134Z,100.00
2022-08-03T00:38:00.757Z,100.00
2022-08-03T00:40:28.575Z,100.00
2022-08-03T00:43:04.584Z,100.00
2022-08-03T00:45:42.529Z,100.00
2022-08-03T00:48:19.786Z,100.00
2022-08-03T00:51:01.600Z,100.00
2022-08-03T00:53:29.443Z,100.00
2022-08-03T00:55:57.036Z,100.00
2022-08-03T00:58:24.502Z,100.00
2022-08-03T01:00:52.029Z,100.00
2022-08-03T01:03:19.392Z,100.00
2022-08-03T01:06:04.795Z,100.00
2022-08-03T01:09:07.989Z,100.00
2022-08-03T01:12:11.801Z,100.00
2022-08-03T01:15:31.712Z,100.00
2022-08-03T01:19:12.813Z,100.00
2022-08-03T01:22:14.682Z,100.00
2022-08-03T01:25:26.968Z,100.00
2022-08-03T01:29:05.931Z,100.00
2022-08-03T01:32:54.594Z,100.00
2022-08-03T01:35:17.117Z,100.00
2022-08-03T01:38:07.118Z,100.00
2022-08-03T01:40:36.741Z,100.00
2022-08-03T01:43:08.780Z,100.00
2022-08-03T01:45:37.731Z,100.00
2022-08-03T01:48:07.590Z,100.00
2022-08-03T01:50:35.452Z,100.00
2022-08-03T01:53:03.602Z,100.00
2022-08-03T01:55:33.287Z,100.00
2022-08-03T01:58:06.823Z,100.00
2022-08-03T02:00:37.884Z,100.00
2022-08-03T02:03:07.850Z,100.00
2022-08-03T02:05:36.411Z,100.00
2022-08-03T02:08:09.199Z,100.00
2022-08-03T02:10:37.705Z,100.00
2022-08-03T02:13:09.290Z,100.00
2022-08-03T02:15:39.247Z,100.00
2022-08-03T02:18:11.002Z,100.00
2022-08-03T02:20:44.244Z,100.00
2022-08-03T02:23:11.963Z,100.00
2022-08-03T02:25:48.207Z,100.00
2022-08-03T02:28:24.833Z,100.00
2022-08-03T02:30:56.006Z,100.00
2022-08-03T02:33:42.460Z,100.00
2022-08-03T02:36:14.505Z,100.00
2022-08-03T02:38:45.468Z,100.00
2022-08-03T02:41:21.247Z,100.00
2022-08-03T02:44:06.391Z,100.00
2022-08-03T02:46:44.540Z,100.00
2022-08-03T02:49:40.552Z,100.00
2022-08-03T02:52:11.355Z,100.00
2022-08-03T02:54:46.646Z,100.00
2022-08-03T02:57:15.262Z,100.00
2022-08-03T02:59:44.221Z,100.00
2022-08-03T03:02:12.633Z,100.00
2022-08-03T03:04:56.198Z,100.00
2022-08-03T03:07:29.454Z,100.00
2022-08-03T03:10:03.227Z,100.00
2022-08-03T03:12:34.306Z,100.00
2022-08-03T03:15:01.629Z,100.00
2022-08-03T03:17:31.055Z,100.00
2022-08-03T03:19:59.249Z,100.00
2022-08-03T03:22:28.162Z,100.00
2022-08-03T03:24:56.020Z,100.00
2022-08-03T03:27:24.751Z,100.00
2022-08-03T03:29:55.016Z,100.00
2022-08-03T03:32:22.564Z,100.00
2022-08-03T03:34:50.505Z,100.00
2022-08-03T03:37:18.478Z,100.00
2022-08-03T03:39:45.812Z,100.00
2022-08-03T03:42:13.787Z,100.00
2022-08-03T03:44:41.586Z,100.00
2022-08-03T03:47:08.982Z,100.00
2022-08-03T03:49:37.330Z,100.00
2022-08-03T03:52:05.178Z,100.00
2022-08-03T03:54:45.639Z,100.00
2022-08-03T03:57:13.920Z,100.00
2022-08-03T03:59:42.592Z,100.00
2022-08-03T04:02:12.532Z,100.00
2022-08-03T04:04:58.823Z,100.00
2022-08-03T04:07:46.874Z,100.00
2022-08-03T04:10:56.592Z,100.00
2022-08-03T04:13:25.410Z,100.00
2022-08-03T04:15:54.439Z,100.00
2022-08-03T04:18:22.713Z,100.00
2022-08-03T04:20:51.985Z,100.00
2022-08-03T04:23:25.156Z,100.00
2022-08-03T04:25:55.695Z,100.00
2022-08-03T04:28:31.426Z,100.00
2022-08-03T04:31:01.616Z,100.00
2022-08-03T04:33:33.443Z,100.00
2022-08-03T04:36:09.290Z,100.00
2022-08-03T04:41:30.440Z,100.00
2022-08-03T04:44:00.779Z,100.00
2022-08-03T04:46:35.732Z,100.00
2022-08-03T04:49:03.265Z,100.00
2022-08-03T04:51:31.523Z,100.00
2022-08-03T04:53:59.530Z,100.00
2022-08-03T04:56:26.988Z,100.00
2022-08-03T04:58:56.097Z,100.00
2022-08-03T05:01:23.518Z,100.00
2022-08-03T05:03:51.666Z,100.00
2022-08-03T05:06:18.985Z,100.00
2022-08-03T05:08:50.883Z,100.00
2022-08-03T05:11:18.862Z,100.00
2022-08-03T05:13:46.900Z,100.00
2022-08-03T05:16:15.244Z,100.00
2022-08-03T05:18:44.165Z,100.00
2022-08-03T05:21:16.929Z,100.00
2022-08-03T05:23:45.348Z,100.00
2022-08-03T05:26:12.908Z,100.00
2022-08-03T05:28:40.669Z,100.00
2022-08-03T05:31:19.847Z,100.00
2022-08-03T05:33:48.911Z,100.00
2022-08-03T05:36:16.471Z,100.00
2022-08-03T05:38:43.782Z,100.00
2022-08-03T05:41:21.625Z,100.00
2022-08-03T05:43:55.356Z,100.00
2022-08-03T05:46:23.887Z,100.00
2022-08-03T05:48:51.484Z,100.00
2022-08-03T05:51:19.112Z,100.00
2022-08-03T05:53:46.731Z,100.00
2022-08-03T05:56:16.220Z,100.00
2022-08-03T05:58:47.473Z,100.00
2022-08-03T06:01:21.812Z,100.00
2022-08-03T06:03:51.065Z,100.00
2022-08-03T06:06:18.855Z,100.00
2022-08-03T06:08:46.948Z,100.00
2022-08-03T06:11:15.253Z,100.00
2022-08-03T06:13:43.881Z,100.00
2022-08-03T06:16:11.531Z,100.00
2022-08-03T06:18:40.447Z,100.00
2022-08-03T06:21:15.562Z,100.00
2022-08-03T06:23:54.618Z,100.00
2022-08-03T06:26:26.979Z,100.00
2022-08-03T06:28:55.439Z,100.00
2022-08-03T06:31:33.120Z,100.00
2022-08-03T06:34:34.351Z,100.00
2022-08-03T06:36:58.580Z,100.00
2022-08-03T06:39:29.630Z,100.00
2022-08-03T06:41:57.968Z,100.00
2022-08-03T06:44:25.300Z,100.00
2022-08-03T06:46:53.842Z,100.00
2022-08-03T06:49:24.602Z,100.00
2022-08-03T06:52:05.545Z,100.00
2022-08-03T06:54:34.506Z,100.00
2022-08-03T06:57:02.712Z,100.00
2022-08-03T07:00:09.847Z,100.00
2022-08-03T07:02:21.091Z,100.00
2022-08-03T07:04:49.628Z,100.00
2022-08-03T07:07:17.812Z,100.00
2022-08-03T07:09:56.434Z,100.00
2022-08-03T07:12:26.364Z,100.00
2022-08-03T07:14:59.771Z,100.00
2022-08-03T07:17:30.898Z,100.00
2022-08-03T07:19:58.914Z,100.00
2022-08-03T07:22:26.803Z,100.00
2022-08-03T07:24:54.427Z,100.00
2022-08-03T07:27:21.915Z,100.00
2022-08-03T07:29:49.366Z,100.00
2022-08-03T07:32:16.924Z,100.00
2022-08-03T07:34:44.717Z,100.00
2022-08-03T07:37:12.037Z,100.00
2022-08-03T07:39:39.349Z,100.00
2022-08-03T07:42:07.037Z,100.00
2022-08-03T07:44:34.593Z,100.00
2022-08-03T07:47:03.451Z,100.00
2022-08-03T07:49:31.491Z,100.00
2022-08-03T07:52:17.776Z,100.00
2022-08-03T07:54:45.518Z,100.00
2022-08-03T07:57:13.018Z,100.00
2022-08-03T07:59:57.190Z,100.00
2022-08-03T08:02:29.247Z,100.00
2022-08-03T08:04:56.622Z,100.00
2022-08-03T08:07:25.246Z,100.00
2022-08-03T08:09:52.835Z,100.00
2022-08-03T08:12:20.419Z,100.00
2022-08-03T08:14:48.118Z,100.00
2022-08-03T08:17:15.543Z,100.00
2022-08-03T08:19:45.970Z,100.00
2022-08-03T08:22:30.231Z,100.00
2022-08-03T08:24:59.779Z,100.00
2022-08-03T08:28:30.318Z,100.00
2022-08-03T08:30:21.881Z,100.00
2022-08-03T08:32:51.516Z,100.00
2022-08-03T08:35:19.593Z,100.00
2022-08-03T08:37:51.192Z,100.00
2022-08-03T08:40:22.947Z,100.00
2022-08-03T08:42:58.571Z,100.00
2022-08-03T08:45:28.038Z,100.00
2022-08-03T08:48:01.085Z,100.00
2022-08-03T08:50:31.901Z,96.12
2022-08-03T08:53:03.835Z,100.00
2022-08-03T08:55:58.749Z,96.38
2022-08-03T08:58:23.408Z,96.64
2022-08-03T09:00:51.704Z,92.05
2022-08-03T09:03:22.512Z,92.79
2022-08-03T09:06:00.896Z,91.50
2022-08-03T09:08:34.433Z,89.19
2022-08-03T09:11:01.898Z,89.30
2022-08-03T09:13:30.443Z,87.81
2022-08-03T09:16:21.404Z,90.25
2022-08-03T09:18:54.540Z,88.82
2022-08-03T09:21:33.637Z,85.06
2022-08-03T09:24:08.456Z,87.12
2022-08-03T09:26:49.457Z,83.08
2022-08-03T09:29:22.234Z,82.45
2022-08-03T09:31:49.572Z,76.60
2022-08-03T09:34:18.451Z,75.03
2022-08-03T09:36:52.317Z,73.47
2022-08-03T09:39:40.626Z,76.64
2022-08-03T09:42:23.731Z,72.07
2022-08-03T09:44:53.089Z,73.97
2022-08-03T09:47:37.435Z,74.35
2022-08-03T09:50:12.998Z,69.24
2022-08-03T09:52:50.057Z,71.69
2022-08-03T09:56:33.292Z,69.05
2022-08-03T09:58:14.305Z,64.78
2022-08-03T10:01:06.351Z,62.84
2022-08-03T10:04:03.027Z,63.83
2022-08-03T10:06:29.061Z,63.46
2022-08-03T10:09:11.242Z,59.32
2022-08-03T10:11:42.445Z,56.08
2022-08-03T10:14:23.414Z,55.40
2022-08-03T10:16:50.827Z,58.32
2022-08-03T10:19:18.353Z,58.99
2022-08-03T10:21:56.910Z,57.16
2022-08-03T10:24:29.486Z,59.70
2022-08-03T10:27:08.233Z,59.91
2022-08-03T10:29:42.868Z,53.24
2022-08-03T10:32:32.476Z,56.65
2022-08-03T10:35:21.063Z,52.51
2022-08-03T10:38:09.065Z,52.38
2022-08-03T10:40:57.166Z,50.10
2022-08-03T10:43:59.279Z,47.09
2022-08-03T10:46:27.648Z,47.96
2022-08-03T10:48:56.765Z,46.07
2022-08-03T10:51:26.506Z,46.80
2022-08-03T10:53:55.238Z,45.10
2022-08-03T10:56:54.401Z,45.14
2022-08-03T10:59:46.881Z,41.43
2022-08-03T11:02:15.730Z,41.48
2022-08-03T11:04:45.202Z,40.61
2022-08-03T11:07:26.327Z,41.43
2022-08-03T11:09:56.566Z,41.55
2022-08-03T11:12:31.452Z,40.42
2022-08-03T11:15:09.388Z,41.70
2022-08-03T11:17:46.646Z,38.41
2022-08-03T11:20:53.730Z,37.15
2022-08-03T11:24:03.421Z,36.67
2022-08-03T11:26:34.687Z,36.51
2022-08-03T11:29:30.386Z,36.27
2022-08-03T11:31:58.137Z,36.55
2022-08-03T11:34:26.002Z,35.47
2022-08-03T11:37:30.135Z,34.24
2022-08-03T11:40:02.417Z,32.83
2022-08-03T11:42:36.544Z,33.22
2022-08-03T11:45:08.986Z,31.83
2022-08-03T11:47:50.736Z,33.82
2022-08-03T11:50:20.069Z,33.37
2022-08-03T11:52:49.472Z,31.41
2022-08-03T11:55:22.090Z,31.26
2022-08-03T11:59:17.274Z,31.26
2022-08-03T12:00:38.590Z,31.24
2022-08-03T12:03:12.652Z,31.13
2022-08-03T12:05:53.629Z,30.24
2022-08-03T12:08:28.046Z,29.52
2022-08-03T12:11:00.080Z,29.27
2022-08-03T12:14:44.636Z,29.50
2022-08-03T12:16:28.826Z,30.56
2022-08-03T12:19:09.328Z,30.88
2022-08-03T12:21:57.373Z,29.91
2022-08-03T12:24:29.534Z,30.50
2022-08-03T12:27:00.076Z,30.12
2022-08-03T12:29:28.030Z,29.39
2022-08-03T12:31:55.887Z,30.36
2022-08-03T12:34:24.006Z,30.19
2022-08-03T12:36:56.748Z,29.62
2022-08-03T12:39:30.853Z,29.85
2022-08-03T12:41:59.379Z,30.38
2022-08-03T12:44:36.702Z,34.19
2022-08-03T12:47:07.630Z,30.14
2022-08-03T12:49:54.030Z,28.80
2022-08-03T12:52:23.262Z,28.37
2022-08-03T12:55:01.401Z,28.24
2022-08-03T12:57:42.895Z,28.29
2022-08-03T13:00:28.651Z,27.34
2022-08-03T13:05:57.685Z,27.55
2022-08-03T13:08:25.956Z,27.37
2022-08-03T13:10:53.988Z,26.58
2022-08-03T13:13:39.731Z,27.74
2022-08-03T13:16:07.065Z,27.59
2022-08-03T13:18:34.447Z,26.78
2022-08-03T13:21:02.316Z,27.41
2022-08-03T13:23:29.885Z,27.67
2022-08-03T13:25:57.261Z,26.74
2022-08-03T13:28:24.660Z,27.23
2022-08-03T13:30:54.174Z,26.74
2022-08-03T13:33:21.662Z,27.50
2022-08-03T13:35:48.988Z,26.48
2022-08-03T13:38:17.264Z,26.85
2022-08-03T13:40:44.760Z,26.78
2022-08-03T13:43:13.603Z,25.99
2022-08-03T13:45:42.190Z,26.14
2022-08-03T13:48:10.925Z,26.73
2022-08-03T13:50:42.823Z,26.21
2022-08-03T13:53:10.575Z,26.77
2022-08-03T13:55:38.006Z,25.64
2022-08-03T13:58:07.957Z,25.83
2022-08-03T14:00:35.551Z,26.23
2022-08-03T14:03:13.734Z,25.63
2022-08-03T14:05:43.847Z,25.98
2022-08-03T14:08:13.638Z,25.72
2022-08-03T14:10:44.947Z,26.30
2022-08-03T14:13:17.707Z,26.13
2022-08-03T14:15:49.842Z,25.96
2022-08-03T14:18:28.925Z,25.37
2022-08-03T14:21:06.636Z,25.64
2022-08-03T14:23:37.869Z,26.28
2022-08-03T14:26:10.518Z,25.96
2022-08-03T14:28:40.062Z,26.33
2022-08-03T14:31:15.244Z,26.87
2022-08-03T14:33:55.137Z,26.73
2022-08-03T14:36:22.432Z,26.39
2022-08-03T14:38:49.857Z,27.23
2022-08-03T14:41:20.029Z,26.36
2022-08-03T14:44:01.405Z,26.16
2022-08-03T14:46:31.094Z,26.16
2022-08-03T14:50:33.159Z,26.08
2022-08-03T14:51:51.603Z,25.70
2022-08-03T14:54:22.428Z,25.80
2022-08-03T14:56:49.759Z,26.66
2022-08-03T14:59:17.079Z,26.52
2022-08-03T15:02:03.313Z,27.39
2022-08-03T15:04:31.983Z,27.23
2022-08-03T15:06:59.309Z,26.40
2022-08-03T15:09:28.624Z,25.88
2022-08-03T15:11:55.954Z,26.26
2022-08-03T15:14:32.474Z,26.38
2022-08-03T15:17:02.294Z,25.71
2022-08-03T15:20:05.565Z,25.87
2022-08-03T15:22:20.536Z,26.19
2022-08-03T15:24:52.581Z,26.00
2022-08-03T15:27:20.125Z,26.64
2022-08-03T15:30:09.550Z,26.26
2022-08-03T15:32:35.275Z,25.56
2022-08-03T15:35:02.666Z,25.55
2022-08-03T15:37:29.980Z,25.97
2022-08-03T15:39:58.812Z,26.40
2022-08-03T15:42:30.737Z,26.40
2022-08-03T15:44:58.680Z,26.19
2022-08-03T15:47:26.963Z,26.08
2022-08-03T15:49:54.485Z,26.49
2022-08-03T15:52:21.981Z,26.91
2022-08-03T15:54:49.380Z,26.89
2022-08-03T15:57:16.684Z,26.46
2022-08-03T15:59:44.073Z,26.88
2022-08-03T16:02:11.529Z,26.71
2022-08-03T16:04:38.888Z,26.67
2022-08-03T16:07:06.404Z,26.72
2022-08-03T16:09:42.127Z,27.41
2022-08-03T16:12:15.849Z,27.68
2022-08-03T16:14:52.878Z,26.79
2022-08-03T16:17:22.560Z,26.98
2022-08-03T16:19:54.106Z,27.10
2022-08-03T16:22:24.462Z,27.08
2022-08-03T16:24:55.642Z,27.19
2022-08-03T16:28:00.360Z,27.56
2022-08-03T16:30:16.714Z,26.88
2022-08-03T16:32:47.449Z,27.09
2022-08-03T16:35:19.230Z,27.23
2022-08-03T16:37:50.679Z,27.25
2022-08-03T16:40:25.148Z,27.39
2022-08-03T16:42:53.439Z,27.66
2022-08-03T16:45:20.769Z,27.47
2022-08-03T16:47:48.297Z,27.89
2022-08-03T16:50:30.489Z,27.84
2022-08-03T16:52:57.904Z,27.71
2022-08-03T16:55:48.750Z,27.66
2022-08-03T16:58:15.091Z,27.49
2022-08-03T17:00:43.107Z,28.46
2022-08-03T17:03:18.765Z,27.91
2022-08-03T17:05:50.183Z,28.05
2022-08-03T17:08:26.347Z,27.89
2022-08-03T17:10:56.221Z,28.32
2022-08-03T17:13:38.902Z,27.88
2022-08-03T17:16:11.918Z,28.82
2022-08-03T17:18:57.519Z,28.66
2022-08-03T17:21:35.428Z,29.97
2022-08-03T17:24:45.050Z,29.58
2022-08-03T17:28:51.235Z,29.09
2022-08-03T17:30:19.093Z,28.79
2022-08-03T17:32:56.842Z,29.11
2022-08-03T17:35:34.592Z,29.14
2022-08-03T17:38:11.899Z,29.88
2022-08-03T17:40:43.079Z,29.72
2022-08-03T17:44:13.284Z,29.88
2022-08-03T17:46:07.216Z,30.45
2022-08-03T17:48:41.126Z,30.46
2022-08-03T17:51:31.398Z,30.43
2022-08-03T17:55:57.370Z,30.54
2022-08-03T17:58:08.293Z,30.87
2022-08-03T18:00:59.681Z,30.98
2022-08-03T18:03:58.405Z,30.57
2022-08-03T18:06:36.364Z,30.98
2022-08-03T18:10:02.572Z,30.71
2022-08-03T18:12:05.173Z,31.38
2022-08-03T18:14:57.671Z,31.73
2022-08-03T18:18:01.833Z,30.53
2022-08-03T18:20:32.145Z,31.17
2022-08-03T18:23:07.009Z,31.85
2022-08-03T18:25:42.903Z,31.60
2022-08-03T18:28:14.521Z,31.02
2022-08-03T18:30:53.080Z,31.59
2022-08-03T18:34:16.918Z,31.27
2022-08-03T18:36:17.980Z,32.74
2022-08-03T18:38:49.132Z,33.51
2022-08-03T18:41:21.963Z,33.59
2022-08-03T18:44:08.221Z,33.97
2022-08-03T18:51:09.753Z,34.73
2022-08-03T18:54:06.480Z,35.25
2022-08-03T18:56:54.441Z,35.76
2022-08-03T18:59:52.841Z,35.82
2022-08-03T19:02:48.700Z,36.31
2022-08-03T19:05:24.671Z,37.54
2022-08-03T19:08:47.871Z,38.80
2022-08-03T19:12:13.189Z,38.81
2022-08-03T19:14:44.243Z,39.64
2022-08-03T19:17:14.081Z,41.17
2022-08-03T19:19:52.284Z,41.48
2022-08-03T19:22:23.043Z,42.48
2022-08-03T19:24:52.876Z,42.59
2022-08-03T19:27:27.017Z,41.95
2022-08-03T19:30:03.036Z,43.44
2022-08-03T19:32:35.158Z,43.06
2022-08-03T19:35:10.109Z,44.03
2022-08-03T19:37:46.540Z,45.05
2022-08-03T19:40:13.880Z,46.55
2022-08-03T19:42:46.835Z,47.05
2022-08-03T19:46:04.863Z,48.27
2022-08-03T19:48:26.060Z,50.26
2022-08-03T19:50:56.808Z,51.69
2022-08-03T19:53:35.362Z,52.41
2022-08-03T19:56:07.025Z,54.99
2022-08-03T19:58:35.417Z,53.61
2022-08-03T20:01:18.934Z,54.38
2022-08-03T20:03:49.752Z,54.30
2022-08-03T20:06:23.125Z,55.00
2022-08-03T20:08:51.833Z,58.37
2022-08-03T20:11:20.463Z,57.44
2022-08-03T20:13:59.130Z,60.65
2022-08-03T20:16:27.225Z,61.18
2022-08-03T20:18:54.588Z,61.58
2022-08-03T20:21:27.234Z,61.19
2022-08-03T20:24:23.080Z,62.30
2022-08-03T20:26:59.377Z,60.88
2022-08-03T20:30:07.250Z,59.45
2022-08-03T20:32:35.685Z,58.71
2022-08-03T20:35:03.105Z,60.78
2022-08-03T20:37:37.909Z,64.17
2022-08-03T20:40:07.212Z,67.37
2022-08-03T20:42:34.555Z,64.85
2022-08-03T20:45:05.395Z,63.80
2022-08-03T20:47:50.660Z,63.43
2022-08-03T20:50:18.441Z,62.39
2022-08-03T20:52:50.601Z,56.29
2022-08-03T20:55:39.106Z,54.45
2022-08-03T20:58:07.689Z,52.88
2022-08-03T21:00:35.045Z,50.49
2022-08-03T21:03:02.561Z,62.25
2022-08-03T21:05:51.208Z,56.40
2022-08-03T21:08:20.954Z,54.98
2022-08-03T21:10:49.366Z,53.48
2022-08-03T21:13:09.603Z,34.09
2022-08-03T21:13:45.195Z,50.37
2022-08-03T21:16:15.321Z,50.52
2022-08-03T21:18:57.924Z,51.15
2022-08-03T21:21:32.589Z,51.08
2022-08-03T21:24:03.528Z,65.39
2022-08-03T21:26:34.323Z,49.63
2022-08-03T21:29:02.453Z,48.62
2022-08-03T21:31:30.024Z,48.30
2022-08-03T21:34:05.274Z,47.71
2022-08-03T21:36:37.934Z,47.46
2022-08-03T21:39:10.069Z,48.98
2022-08-03T21:41:41.352Z,48.11
2022-08-03T21:44:09.162Z,48.24
2022-08-03T21:46:43.130Z,49.29
2022-08-03T21:50:04.710Z,49.65
2022-08-03T21:52:07.218Z,49.53
2022-08-03T21:54:58.272Z,50.19
2022-08-03T21:57:27.981Z,55.80
2022-08-03T22:00:14.973Z,53.96
2022-08-03T22:02:53.185Z,51.38
2022-08-03T22:05:42.361Z,55.74
2022-08-03T22:08:13.686Z,55.78
2022-08-03T22:10:45.011Z,60.83
2022-08-03T22:13:20.594Z,60.60
2022-08-03T22:16:05.438Z,60.49
2022-08-03T22:18:32.918Z,61.01
2022-08-03T22:21:02.168Z,59.96
2022-08-03T22:23:30.842Z,58.98
2022-08-03T22:26:03.436Z,56.84
2022-08-03T22:28:31.924Z,55.97
2022-08-03T22:31:00.105Z,64.80
2022-08-03T22:33:50.113Z,60.96
2022-08-03T22:36:22.814Z,61.42
2022-08-03T22:38:53.458Z,59.20
2022-08-03T22:41:21.568Z,61.74
2022-08-03T22:43:49.714Z,63.71
2022-08-03T22:46:23.440Z,62.19
2022-08-03T22:48:51.701Z,63.05
2022-08-03T22:51:21.010Z,64.10
2022-08-03T22:53:49.211Z,66.22
2022-08-03T22:56:16.547Z,68.25
2022-08-03T22:58:43.891Z,65.88
2022-08-03T23:01:18.524Z,64.72
2022-08-03T23:04:02.069Z,60.79
2022-08-03T23:06:40.485Z,62.64
2022-08-03T23:09:12.668Z,59.72
2022-08-03T23:11:45.960Z,59.49
2022-08-03T23:14:20.490Z,61.76
2022-08-03T23:16:50.280Z,61.59
2022-08-03T23:19:25.045Z,60.81
2022-08-03T23:22:03.134Z,60.50
2022-08-03T23:24:38.919Z,62.06
2022-08-03T23:27:09.161Z,59.78
2022-08-03T23:29:42.200Z,61.35
2022-08-03T23:32:12.853Z,60.32
2022-08-03T23:35:00.617Z,61.83
2022-08-03T23:37:28.239Z,62.56
2022-08-03T23:39:56.993Z,62.80
2022-08-03T23:42:25.436Z,62.75
2022-08-03T23:45:05.394Z,64.36
2022-08-03T23:47:46.413Z,65.61
2022-08-03T23:50:15.448Z,64.19
2022-08-03T23:53:11.717Z,64.02
2022-08-03T23:56:11.938Z,65.19
2022-08-03T23:59:14.075Z,65.44
